ADDS METAR Data INFO
IDs: Format: Raw Decoded Include TAF

Data at: 0948 UTC 25 Jun 2018

KDRM 250935Z AUTO 04003KT 10SM CLR 12/06 A3022 RMK AO2 T01210061
KDRM 250915Z AUTO 05003KT 10SM CLR 13/06 A3021 RMK AO2 T01250059
KDRM 250855Z AUTO 06003KT 10SM CLR 13/06 A3020 RMK AO2 T01270058
KDRM 250835Z AUTO 06004KT 10SM CLR 13/06 A3020 RMK AO2 T01270060
KDRM 250815Z AUTO 00000KT 10SM CLR 13/06 A3020 RMK AO2 T01280061
KDRM 250755Z AUTO 00000KT 10SM CLR 13/06 A3020 RMK AO2 T01250062
KDRM 250735Z AUTO 00000KT 10SM CLR 13/06 A3020 RMK AO2 T01270063
KDRM 250715Z AUTO 02003KT 10SM CLR 13/07 A3019 RMK AO2 T01270066
KDRM 250655Z AUTO 00000KT 10SM CLR 13/07 A3018 RMK AO2 T01290071
KDRM 250635Z AUTO 00000KT 10SM CLR 13/08 A3018 RMK AO2 T01250075
KDRM 250615Z AUTO 00000KT 10SM CLR 12/08 A3018 RMK AO2 T01150083
KDRM 250555Z AUTO 00000KT 10SM CLR 11/09 A3017 RMK AO2 T01070085 10179 20100 402110100
KDRM 250535Z AUTO 00000KT 10SM CLR 11/09 A3017 RMK AO2 T01090093
KDRM 250515Z AUTO 00000KT 10SM CLR 11/10 A3016 RMK AO2 T01070104
KDRM 250455Z AUTO 00000KT 1 1/4SM BR VV007 11/10 A3016 RMK AO2 VIS 1/2V5 T01050101
KDRM 250435Z AUTO 00000KT 10SM CLR 11/10 A3016 RMK AO2 T01070101
KDRM 250415Z AUTO 00000KT 10SM CLR 11/10 A3015 RMK AO2 T01080103
KDRM 250356Z AUTO 00000KT 10SM CLR 11/11 A3014 RMK AO2 T01130107
KDRM 250335Z AUTO 00000KT 10SM CLR 12/11 A3014 RMK AO2 T01170112
KDRM 250315Z AUTO 00000KT 10SM CLR 13/12 A3013 RMK AO2 T01250115
KDRM 250255Z AUTO 00000KT 10SM CLR 12/11 A3013 RMK AO2 T01220111
KDRM 250235Z AUTO 00000KT 10SM CLR 13/12 A3011 RMK AO2 T01280116
KDRM 250215Z AUTO 00000KT 10SM CLR 14/12 A3010 RMK AO2 T01380118
KDRM 250155Z AUTO 00000KT 10SM CLR 14/12 A3009 RMK AO2 T01420119
KDRM 250135Z AUTO 20003KT 10SM CLR 15/12 A3008 RMK AO2 T01500120
KDRM 250115Z AUTO 00000KT 10SM CLR 16/12 A3007 RMK AO2 T01570120
KDRM 250055Z AUTO 00000KT 10SM CLR 17/12 A3007 RMK AO2 T01700116
KDRM 250035Z AUTO 00000KT 10SM CLR 18/12 A3006 RMK AO2 T01750119
KDRM 250015Z AUTO 00000KT 10SM CLR 18/12 A3006 RMK AO2 T01760116
KDRM 242355Z AUTO 19005KT 10SM CLR 18/12 A3006 RMK AO2 T01820117 10211 20173
KDRM 242335Z AUTO 19006KT 10SM CLR 19/12 A3005 RMK AO2 T01930119
KDRM 242315Z AUTO 20004KT 10SM CLR 21/11 A3005 RMK AO2 T02080111
KDRM 242255Z AUTO 00000KT 10SM CLR 21/11 A3005 RMK AO2 T02080108
KDRM 242235Z AUTO 32003KT 10SM CLR 21/11 A3005 RMK AO2 T02060110
KDRM 242215Z AUTO 00000KT 10SM CLR 21/11 A3005 RMK AO2 T02090107
KDRM 242155Z AUTO 36003KT 10SM CLR 20/11 A3006 RMK AO2 T01990108
KDRM 242135Z AUTO 36004KT 10SM CLR 20/11 A3005 RMK AO2 T02040108
KDRM 242115Z AUTO 35004KT 10SM SCT080 20/11 A3005 RMK AO2 T02020109
KDRM 242055Z AUTO 33003KT 10SM OVC080 20/11 A3005 RMK AO2 T02000108
KDRM 242035Z AUTO 36005KT 10SM OVC080 20/11 A3005 RMK AO2 T01960109
KDRM 242015Z AUTO 32003KT 10SM BKN080 20/11 A3004 RMK AO2 T01970108
KDRM 241955Z AUTO 32005KT 10SM CLR 19/11 A3004 RMK AO2 T01930108
KDRM 241935Z AUTO 34004KT 10SM SCT110 19/11 A3004 RMK AO2 T01900110
KDRM 241915Z AUTO 01003KT 10SM BKN110 18/10 A3004 RMK AO2 T01810102
KDRM 241855Z AUTO 00000KT 10SM OVC100 19/10 A3003 RMK AO2 T01850104
KDRM 241835Z AUTO 35005KT 10SM OVC100 17/11 A3003 RMK AO2 T01730105
KDRM 241815Z AUTO 04003KT 10SM SCT065 OVC110 18/10 A3002 RMK AO2 T01800097
KDRM 241755Z AUTO 02004KT 10SM SCT065 OVC110 18/10 A3002 RMK AO2 T01750099 10190 20142
KDRM 241735Z AUTO 36005KT 10SM OVC110 18/10 A3001 RMK AO2 T01780101
KDRM 241715Z AUTO 36007KT 10SM BKN110 18/10 A3000 RMK AO2 T01820101
KDRM 241655Z AUTO 01006KT 10SM SCT085 BKN110 19/10 A3000 RMK AO2 T01860101
KDRM 241635Z AUTO 03007KT 360V070 10SM SCT110 19/10 A2999 RMK AO2 T01870102
KDRM 241615Z AUTO 03006KT 10SM SCT085 18/10 A2998 RMK AO2 T01810102
KDRM 241555Z AUTO 02004KT 10SM SCT085 SCT120 17/10 A2997 RMK AO2 T01700100
KDRM 241535Z AUTO 02006KT 10SM BKN075 16/10 A2997 RMK AO2 T01640097
KDRM 241515Z AUTO 02005KT 10SM BKN075 16/10 A2996 RMK AO2 T01640100
KDRM 241455Z AUTO 05007KT 10SM BKN075 BKN100 16/10 A2996 RMK AO2 T01550095
KDRM 241435Z AUTO 03004KT 10SM BKN075 16/09 A2995 RMK AO2 T01550094
KDRM 241415Z AUTO 03004KT 10SM BKN075 BKN090 BKN120 15/09 A2995 RMK AO2 T01460093
KDRM 241355Z AUTO 01006KT 10SM SCT075 SCT085 SCT100 14/09 A2994 RMK AO2 T01420091
KDRM 241335Z AUTO 03007KT 10SM SCT100 14/09 A2994 RMK AO2 T01430091
KDRM 241315Z AUTO 00000KT 10SM CLR 15/10 A2993 RMK AO2 T01480098
KDRM 241255Z AUTO 03005KT 10SM SCT095 14/09 A2992 RMK AO2 T01440093
KDRM 241235Z AUTO 03006G14KT 10SM BKN095 15/09 A2991 RMK AO2 T01450090
KDRM 241215Z AUTO 05008G14KT 020V080 10SM CLR 15/09 A2991 RMK AO2 T01490093
KDRM 241155Z AUTO 03004KT 10SM SCT100 14/09 A2990 RMK AO2 T01420092 10168 20141
KDRM 241135Z AUTO 02004KT 10SM BKN100 14/10 A2990 RMK AO2 T01410095
KDRM 241115Z AUTO 03004KT 10SM SCT100 14/10 A2989 RMK AO2 T01430097
KDRM 241055Z AUTO 00000KT 10SM CLR 15/10 A2989 RMK AO2 T01450099
KDRM 241035Z AUTO 04004KT 10SM CLR 15/10 A2988 RMK AO2 T01480100
KDRM 241015Z AUTO 04004KT 10SM CLR 15/11 A2987 RMK AO2 T01510105
KDRM 240955Z AUTO 04004KT 10SM CLR 16/11 A2986 RMK AO2 T01550107
KDRM 240935Z AUTO 00000KT 10SM CLR 16/12 A2985 RMK AO2 T01570115
KDRM 240915Z AUTO 00000KT 10SM CLR 16/12 A2985 RMK AO2 T01600120
KDRM 240855Z AUTO 03003KT 10SM CLR 17/13 A2984 RMK AO2 T01650129
KDRM 240835Z AUTO 02003KT 10SM CLR 17/14 A2983 RMK AO2 T01680141
KDRM 240815Z AUTO 00000KT 10SM CLR 16/15 A2983 RMK AO2 T01570152
KDRM 240755Z AUTO 00000KT 10SM CLR 15/15 A2982 RMK AO2 T01500145
KDRM 240735Z AUTO 00000KT 10SM CLR 15/15 A2982 RMK AO2 T01500145
KDRM 240715Z AUTO 00000KT 10SM CLR 15/15 A2981 RMK AO2 T01510145
KDRM 240655Z AUTO 00000KT 10SM CLR 15/15 A2981 RMK AO2 T01500145
KDRM 240635Z AUTO 00000KT 10SM SCT055 15/15 A2981 RMK AO2 T01500145
KDRM 240615Z AUTO 00000KT 10SM SCT055 15/15 A2980 RMK AO2 T01530149
KDRM 240555Z AUTO 00000KT 10SM SCT055 15/15 A2980 RMK AO2 T01500146 10180 20150 402360121
KDRM 240535Z AUTO 00000KT 10SM CLR 15/15 A2980 RMK AO2 T01510146
KDRM 240515Z AUTO 00000KT 10SM CLR 15/15 A2980 RMK AO2 T01520147
KDRM 240455Z AUTO 00000KT 10SM CLR 15/15 A2981 RMK AO2 T01530148
KDRM 240435Z AUTO 00000KT 10SM CLR 15/15 A2981 RMK AO2 T01540149
KDRM 240415Z AUTO 00000KT 10SM CLR 16/15 A2981 RMK AO2 T01550147
KDRM 240355Z AUTO 00000KT 10SM CLR 16/15 A2981 RMK AO2 T01560148
KDRM 240335Z AUTO 00000KT 10SM CLR 16/15 A2981 RMK AO2 T01560149
KDRM 240315Z AUTO 00000KT 10SM CLR 16/15 A2980 RMK AO2 T01570146
KDRM 240255Z AUTO 00000KT 10SM CLR 16/15 A2980 RMK AO2 T01560146
KDRM 240235Z AUTO 00000KT 10SM SCT110 16/15 A2980 RMK AO2 T01580145
KDRM 240215Z AUTO 00000KT 10SM BKN110 16/15 A2980 RMK AO2 T01580145
KDRM 240155Z AUTO 00000KT 10SM -RA OVC110 16/14 A2979 RMK AO2 T01620141
KDRM 240135Z AUTO 00000KT 10SM -RA OVC100 17/14 A2978 RMK AO2 T01660135
KDRM 240115Z AUTO 00000KT 10SM OVC100 17/14 A2979 RMK AO2 T01700135
KDRM 240055Z AUTO 00000KT 10SM OVC100 17/13 A2979 RMK AO2 T01710134
KDRM 240035Z AUTO 00000KT 10SM BKN100 OVC120 18/14 A2978 RMK AO2 T01750137
KDRM 240015Z AUTO 20003KT 10SM OVC120 18/14 A2978 RMK AO2 T01770139
KDRM 232355Z AUTO 19003KT 10SM OVC110 18/14 A2978 RMK AO2 T01810140 10236 20181
KDRM 232335Z AUTO 18004KT 10SM OVC110 19/14 A2978 RMK AO2 T01850141
KDRM 232315Z AUTO 16003KT 10SM SCT075 OVC110 19/14 A2978 RMK AO2 T01850143
KDRM 232255Z AUTO 19004KT 10SM SCT075 OVC120 19/15 A2978 RMK AO2 T01870145
KDRM 232235Z AUTO 19004KT 10SM SCT075 OVC120 19/15 A2977 RMK AO2 T01910147
KDRM 232215Z AUTO 17004KT 10SM BKN065 BKN120 20/15 A2977 RMK AO2 T01950151
KDRM 232155Z AUTO 17004KT 10SM SCT065 20/15 A2976 RMK AO2 T01970153